createdAt,value
2018-11-27T00:00:35.146Z,57.70
2018-11-27T00:03:09.564Z,57.70
2018-11-27T00:05:38.761Z,58.00
2018-11-27T00:08:07.958Z,57.70
2018-11-27T00:10:38.410Z,57.70
2018-11-27T00:13:07.213Z,57.70
2018-11-27T00:15:35.967Z,57.70
2018-11-27T00:18:04.866Z,57.70
2018-11-27T00:20:33.635Z,57.70
2018-11-27T00:23:02.442Z,57.70
2018-11-27T00:25:31.332Z,57.70
2018-11-27T00:28:00.108Z,57.70
2018-11-27T00:30:28.803Z,57.70
2018-11-27T00:32:57.696Z,57.70
2018-11-27T00:35:26.591Z,57.70
2018-11-27T00:37:55.359Z,57.70
2018-11-27T00:40:24.559Z,57.70
2018-11-27T00:42:53.468Z,57.70
2018-11-27T00:45:22.261Z,57.70
2018-11-27T00:47:51.635Z,57.70
2018-11-27T00:50:24.535Z,57.70
2018-11-27T00:52:53.340Z,57.70
2018-11-27T00:55:22.230Z,57.70
2018-11-27T00:57:51.943Z,57.70
2018-11-27T01:00:21.520Z,57.70
2018-11-27T01:02:50.438Z,57.70
2018-11-27T01:05:20.338Z,57.70
2018-11-27T01:07:49.146Z,57.70
2018-11-27T01:10:24.487Z,57.70
2018-11-27T01:12:53.428Z,57.70
2018-11-27T01:15:22.271Z,57.70
2018-11-27T01:17:52.137Z,57.70
2018-11-27T01:20:21.592Z,57.70
2018-11-27T01:22:50.380Z,57.80
2018-11-27T01:25:19.152Z,57.70
2018-11-27T01:27:47.961Z,57.70
2018-11-27T01:30:17.745Z,57.70
2018-11-27T01:32:46.650Z,57.60
2018-11-27T01:35:34.621Z,57.70
2018-11-27T01:38:22.664Z,57.70
2018-11-27T01:41:10.808Z,57.70
2018-11-27T01:43:58.950Z,57.70
2018-11-27T01:46:47.093Z,57.60
2018-11-27T01:49:35.240Z,57.60
2018-11-27T01:52:23.278Z,57.60
2018-11-27T01:55:11.933Z,57.60
2018-11-27T01:58:00.282Z,57.60
2018-11-27T02:00:48.224Z,57.60
2018-11-27T02:03:36.159Z,57.60
2018-11-27T02:06:24.307Z,57.60
2018-11-27T02:09:12.342Z,57.60
2018-11-27T02:12:19.659Z,57.60
2018-11-27T02:15:16.994Z,57.60
2018-11-27T02:18:05.037Z,57.60
2018-11-27T02:20:53.182Z,57.60
2018-11-27T02:23:41.220Z,57.60
2018-11-27T02:26:29.160Z,57.60
2018-11-27T02:29:17.100Z,57.60
2018-11-27T02:32:05.242Z,57.60
2018-11-27T02:34:53.589Z,57.60
2018-11-27T02:37:41.627Z,57.60
2018-11-27T02:40:29.675Z,57.60
2018-11-27T02:43:17.607Z,57.60
2018-11-27T02:46:05.647Z,57.60
2018-11-27T02:48:53.793Z,57.60
2018-11-27T02:51:41.826Z,57.60
2018-11-27T02:54:48.868Z,57.60
2018-11-27T02:57:36.961Z,57.60
2018-11-27T03:00:25.411Z,57.50
2018-11-27T03:03:13.556Z,57.60
2018-11-27T03:06:01.609Z,57.60
2018-11-27T03:08:49.741Z,57.60
2018-11-27T03:11:37.883Z,57.60
2018-11-27T03:14:25.923Z,57.60
2018-11-27T03:17:13.965Z,57.70
2018-11-27T03:20:02.110Z,57.70
2018-11-27T03:22:50.268Z,57.80
2018-11-27T03:25:38.192Z,57.60
2018-11-27T03:28:26.334Z,57.60
2018-11-27T03:31:14.382Z,57.60
2018-11-27T03:34:02.519Z,57.70
2018-11-27T03:36:51.479Z,57.50
2018-11-27T03:39:39.623Z,57.60
2018-11-27T03:42:27.767Z,57.60
2018-11-27T03:45:16.117Z,57.50
2018-11-27T03:48:04.257Z,57.50
2018-11-27T03:50:52.399Z,57.70
2018-11-27T03:53:40.573Z,57.50
2018-11-27T03:56:28.587Z,58.10
2018-11-27T03:59:16.730Z,57.50
2018-11-27T04:02:04.666Z,57.50
2018-11-27T04:04:52.707Z,57.50
2018-11-27T04:07:40.856Z,57.50
2018-11-27T04:10:28.793Z,57.60
2018-11-27T04:13:16.829Z,57.50
2018-11-27T04:16:04.874Z,57.50
2018-11-27T04:18:53.017Z,57.60
2018-11-27T04:21:41.159Z,57.60
2018-11-27T04:24:21.813Z,57.60
2018-11-27T04:27:03.171Z,57.50
2018-11-27T04:29:43.982Z,57.50
2018-11-27T04:32:25.272Z,57.50
2018-11-27T04:35:29.011Z,57.50
2018-11-27T04:37:59.511Z,57.50
2018-11-27T04:40:27.515Z,57.50
2018-11-27T04:42:56.611Z,57.60
2018-11-27T04:45:26.617Z,57.50
2018-11-27T04:47:55.724Z,57.50
2018-11-27T04:50:24.974Z,57.60
2018-11-27T04:52:54.110Z,57.50
2018-11-27T04:55:23.331Z,57.60
2018-11-27T04:57:52.947Z,57.50
2018-11-27T05:00:26.099Z,57.50
2018-11-27T05:02:55.474Z,57.60
2018-11-27T05:05:24.945Z,57.60
2018-11-27T05:07:54.235Z,57.60
2018-11-27T05:10:24.223Z,57.60
2018-11-27T05:12:53.390Z,57.60
2018-11-27T05:15:23.889Z,57.60
2018-11-27T05:17:55.018Z,57.60
2018-11-27T05:20:24.228Z,58.20
2018-11-27T05:22:53.472Z,57.60
2018-11-27T05:25:22.645Z,57.60
2018-11-27T05:27:53.988Z,57.50
2018-11-27T05:30:25.990Z,57.50
2018-11-27T05:32:56.169Z,57.60
2018-11-27T05:35:28.408Z,57.60
2018-11-27T05:37:58.023Z,57.50
2018-11-27T05:40:27.239Z,57.80
2018-11-27T05:42:59.409Z,57.50
2018-11-27T05:45:28.600Z,57.50
2018-11-27T05:47:57.699Z,57.50
2018-11-27T05:50:26.800Z,57.60
2018-11-27T05:52:56.005Z,57.50
2018-11-27T05:55:25.301Z,57.50
2018-11-27T05:57:55.317Z,57.50
2018-11-27T06:00:27.138Z,57.50
2018-11-27T06:02:59.552Z,57.60
2018-11-27T06:05:28.890Z,57.50
2018-11-27T06:07:58.094Z,57.50
2018-11-27T06:10:27.286Z,57.50
2018-11-27T06:12:56.247Z,57.50
2018-11-27T06:15:27.930Z,57.50
2018-11-27T06:17:58.353Z,57.50
2018-11-27T06:20:27.638Z,57.50
2018-11-27T06:22:57.064Z,57.50
2018-11-27T06:25:27.353Z,57.50
2018-11-27T06:27:59.393Z,57.50
2018-11-27T06:30:29.326Z,57.50
2018-11-27T06:32:58.997Z,57.50
2018-11-27T06:35:34.148Z,57.50
2018-11-27T06:38:03.909Z,57.50
2018-11-27T06:40:33.395Z,57.50
2018-11-27T06:43:02.613Z,57.50
2018-11-27T06:45:31.878Z,57.60
2018-11-27T06:48:01.362Z,57.60
2018-11-27T06:50:30.694Z,57.50
2018-11-27T06:53:00.209Z,57.50
2018-11-27T06:55:29.535Z,57.80
2018-11-27T06:57:58.872Z,57.50
2018-11-27T07:00:29.027Z,57.50
2018-11-27T07:02:59.225Z,57.60
2018-11-27T07:05:28.569Z,57.60
2018-11-27T07:07:57.776Z,57.50
2018-11-27T07:10:32.402Z,57.60
2018-11-27T07:13:06.201Z,57.50
2018-11-27T07:15:35.473Z,57.50
2018-11-27T07:18:04.959Z,57.50
2018-11-27T07:20:34.194Z,57.50
2018-11-27T07:23:03.422Z,57.50
2018-11-27T07:25:32.915Z,57.60
2018-11-27T07:28:02.156Z,57.50
2018-11-27T07:30:31.460Z,57.50
2018-11-27T07:33:00.752Z,57.50
2018-11-27T07:35:30.061Z,57.50
2018-11-27T07:37:59.254Z,57.50
2018-11-27T07:40:29.117Z,57.50
2018-11-27T07:43:03.761Z,57.50
2018-11-27T07:45:33.354Z,57.50
2018-11-27T07:48:02.611Z,57.50
2018-11-27T07:50:31.893Z,57.50
2018-11-27T07:53:01.152Z,57.50
2018-11-27T07:55:30.308Z,57.50
2018-11-27T07:57:59.421Z,57.90
2018-11-27T08:00:29.020Z,57.40
2018-11-27T08:02:59.362Z,57.50
2018-11-27T08:05:32.895Z,57.50
2018-11-27T08:08:02.312Z,57.50
2018-11-27T08:10:32.295Z,57.40
2018-11-27T08:13:01.663Z,57.50
2018-11-27T08:15:31.532Z,58.10
2018-11-27T08:18:00.923Z,58.00
2018-11-27T08:20:31.344Z,57.40
2018-11-27T08:23:00.681Z,57.40
2018-11-27T08:25:30.062Z,57.90
2018-11-27T08:27:59.294Z,57.40
2018-11-27T08:30:28.386Z,57.40
2018-11-27T08:32:58.122Z,57.40
2018-11-27T08:35:29.412Z,57.40
2018-11-27T08:38:00.037Z,57.40
2018-11-27T08:40:30.439Z,57.50
2018-11-27T08:42:59.775Z,57.50
2018-11-27T08:45:28.832Z,57.50
2018-11-27T08:47:57.977Z,57.40
2018-11-27T08:50:28.776Z,57.40
2018-11-27T08:52:58.928Z,57.40
2018-11-27T08:55:30.313Z,57.40
2018-11-27T08:58:00.097Z,57.40
2018-11-27T09:00:29.610Z,57.50
2018-11-27T09:02:59.071Z,57.50
2018-11-27T09:05:28.471Z,57.40
2018-11-27T09:07:57.862Z,57.40
2018-11-27T09:10:26.970Z,57.40
2018-11-27T09:12:56.185Z,57.40
2018-11-27T09:15:25.475Z,57.40
2018-11-27T09:18:02.495Z,57.40
2018-11-27T09:20:31.858Z,57.40
2018-11-27T09:23:00.965Z,57.40
2018-11-27T09:25:30.091Z,57.40
2018-11-27T09:27:59.610Z,57.50
2018-11-27T09:30:28.951Z,57.40
2018-11-27T09:32:58.876Z,57.40
2018-11-27T09:35:28.128Z,57.40
2018-11-27T09:37:57.427Z,57.40
2018-11-27T09:40:26.775Z,57.40
2018-11-27T09:42:56.379Z,57.40
2018-11-27T09:45:26.035Z,57.40
2018-11-27T09:47:57.191Z,57.40
2018-11-27T09:50:26.498Z,57.40
2018-11-27T09:52:55.559Z,57.40
2018-11-27T09:55:26.928Z,57.40
2018-11-27T09:57:59.197Z,57.30
2018-11-27T10:00:28.619Z,57.40
2018-11-27T10:03:01.095Z,57.30
2018-11-27T10:05:30.538Z,57.30
2018-11-27T10:07:59.938Z,57.30
2018-11-27T10:10:29.007Z,57.30
2018-11-27T10:12:58.597Z,57.40
2018-11-27T10:15:28.584Z,57.40
2018-11-27T10:17:59.905Z,57.30
2018-11-27T10:20:30.560Z,57.40
2018-11-27T10:22:59.756Z,57.30
2018-11-27T10:25:28.948Z,57.30
2018-11-27T10:27:58.094Z,57.30
2018-11-27T10:30:28.075Z,57.30
2018-11-27T10:32:58.327Z,57.40
2018-11-27T10:35:29.903Z,57.30
2018-11-27T10:37:59.112Z,57.30
2018-11-27T10:40:28.279Z,57.30
2018-11-27T10:42:57.520Z,57.30
2018-11-27T10:45:26.836Z,57.30
2018-11-27T10:47:56.852Z,57.30
2018-11-27T10:50:25.964Z,57.30
2018-11-27T10:52:56.542Z,57.30
2018-11-27T10:55:25.973Z,58.00
2018-11-27T10:57:55.236Z,57.30
2018-11-27T11:00:30.335Z,57.30
2018-11-27T11:03:02.723Z,57.30
2018-11-27T11:05:33.035Z,57.30
2018-11-27T11:08:02.535Z,57.30
2018-11-27T11:10:31.698Z,57.30
2018-11-27T11:13:01.232Z,57.30
2018-11-27T11:15:30.476Z,57.30
2018-11-27T11:17:59.972Z,57.30
2018-11-27T11:20:29.650Z,57.30
2018-11-27T11:22:59.056Z,57.30
2018-11-27T11:25:28.559Z,57.30
2018-11-27T11:27:59.450Z,57.30
2018-11-27T11:30:28.761Z,57.30
2018-11-27T11:32:58.311Z,57.30
2018-11-27T11:35:27.678Z,57.30
2018-11-27T11:37:57.218Z,57.30
2018-11-27T11:40:26.735Z,57.30
2018-11-27T11:42:57.836Z,57.30
2018-11-27T11:45:27.279Z,57.30
2018-11-27T11:47:56.637Z,57.30
2018-11-27T11:50:28.497Z,57.30
2018-11-27T11:52:59.848Z,57.30
2018-11-27T11:55:29.162Z,57.30
2018-11-27T11:57:58.592Z,57.30
2018-11-27T12:00:35.282Z,57.30
2018-11-27T12:03:04.331Z,57.30
2018-11-27T12:05:34.036Z,57.30
2018-11-27T12:08:03.375Z,57.30
2018-11-27T12:10:32.679Z,57.30
2018-11-27T12:13:02.053Z,57.20
2018-11-27T12:15:31.153Z,57.30
2018-11-27T12:18:00.352Z,57.20
2018-11-27T12:20:29.541Z,57.30
2018-11-27T12:22:58.739Z,57.30
2018-11-27T12:25:28.226Z,57.30
2018-11-27T12:27:57.574Z,57.20
2018-11-27T12:30:27.426Z,57.30
2018-11-27T12:32:56.779Z,57.30
2018-11-27T12:35:26.264Z,56.70
2018-11-27T12:37:55.416Z,57.30
2018-11-27T12:40:26.477Z,57.20
2018-11-27T12:42:56.364Z,57.30
2018-11-27T12:45:26.653Z,57.90
2018-11-27T12:47:56.476Z,57.20
2018-11-27T12:50:28.810Z,57.30
2018-11-27T12:52:58.273Z,57.30
2018-11-27T12:55:27.659Z,57.30
2018-11-27T12:57:56.866Z,57.30
2018-11-27T13:00:26.402Z,57.30
2018-11-27T13:02:55.748Z,57.30
2018-11-27T13:05:26.284Z,57.30
2018-11-27T13:07:58.429Z,57.30
2018-11-27T13:10:27.898Z,57.30
2018-11-27T13:12:57.248Z,57.30
2018-11-27T13:15:26.804Z,57.30
2018-11-27T13:17:56.174Z,57.30
2018-11-27T13:20:25.468Z,57.30
2018-11-27T13:22:54.807Z,57.30
2018-11-27T13:25:25.084Z,57.20
2018-11-27T13:27:56.041Z,57.30
2018-11-27T13:30:42.949Z,57.30
2018-11-27T13:33:19.561Z,57.30
2018-11-27T13:35:48.769Z,57.20
2018-11-27T13:38:17.866Z,57.30
2018-11-27T13:40:47.012Z,57.20
2018-11-27T13:43:26.866Z,57.30
2018-11-27T13:45:57.187Z,57.30
2018-11-27T13:48:26.372Z,57.30
2018-11-27T13:50:55.576Z,57.30
2018-11-27T13:53:24.703Z,57.30
2018-11-27T13:55:53.965Z,57.30
2018-11-27T13:58:23.177Z,57.30
2018-11-27T14:00:52.945Z,57.30
2018-11-27T14:03:22.358Z,57.30
2018-11-27T14:05:51.613Z,57.30
2018-11-27T14:08:20.860Z,57.30
2018-11-27T14:10:50.076Z,57.30
2018-11-27T14:13:19.267Z,57.30
2018-11-27T14:15:48.512Z,57.30
2018-11-27T14:18:17.775Z,57.20
2018-11-27T14:20:47.169Z,57.30
2018-11-27T14:23:16.316Z,57.30
2018-11-27T14:25:45.768Z,57.20
2018-11-27T14:28:15.213Z,57.20
2018-11-27T14:30:44.569Z,57.20
2018-11-27T14:33:13.853Z,57.50
2018-11-27T14:35:43.170Z,57.20
2018-11-27T14:38:12.442Z,57.20
2018-11-27T14:40:41.633Z,57.20
2018-11-27T14:43:10.862Z,57.20
2018-11-27T14:45:40.081Z,57.20
2018-11-27T14:48:09.393Z,57.20
2018-11-27T14:50:38.560Z,57.20
2018-11-27T14:53:07.787Z,57.20
2018-11-27T14:55:37.082Z,57.20
2018-11-27T14:58:06.631Z,57.20
2018-11-27T15:00:36.286Z,57.20
2018-11-27T15:03:05.751Z,57.20
2018-11-27T15:05:38.120Z,57.20
2018-11-27T15:08:12.580Z,57.20
2018-11-27T15:10:41.773Z,57.30
2018-11-27T15:13:11.989Z,57.20
2018-11-27T15:15:41.177Z,57.20
2018-11-27T15:18:10.370Z,57.20
2018-11-27T15:20:39.561Z,57.30
2018-11-27T15:23:08.656Z,57.30
2018-11-27T15:25:38.079Z,57.30
2018-11-27T15:28:07.380Z,57.30
2018-11-27T15:30:37.711Z,57.30
2018-11-27T15:33:07.546Z,57.30
2018-11-27T15:35:37.729Z,57.30
2018-11-27T15:38:07.571Z,57.20
2018-11-27T15:40:37.476Z,57.30
2018-11-27T15:43:06.446Z,57.30
2018-11-27T15:45:36.086Z,57.30
2018-11-27T15:48:07.241Z,57.20
2018-11-27T15:50:36.507Z,57.30
2018-11-27T15:53:06.108Z,57.20
2018-11-27T15:55:36.674Z,57.30
2018-11-27T15:58:13.441Z,57.30
2018-11-27T16:00:43.363Z,57.30
2018-11-27T16:03:12.739Z,57.30
2018-11-27T16:05:46.268Z,57.30
2018-11-27T16:08:15.785Z,57.30
2018-11-27T16:10:44.947Z,57.30
2018-11-27T16:13:14.146Z,57.30
2018-11-27T16:15:43.401Z,57.30
2018-11-27T16:18:12.557Z,57.20
2018-11-27T16:20:41.737Z,57.30
2018-11-27T16:23:11.054Z,57.30
2018-11-27T16:25:40.363Z,57.10
2018-11-27T16:28:09.511Z,57.20
2018-11-27T16:30:38.740Z,57.00
2018-11-27T16:33:08.360Z,56.90
2018-11-27T16:35:37.884Z,56.80
2018-11-27T16:38:07.464Z,56.70
2018-11-27T16:40:37.970Z,56.70
2018-11-27T16:43:07.255Z,56.70
2018-11-27T16:45:36.446Z,56.70
2018-11-27T16:48:06.527Z,56.70
2018-11-27T16:50:35.933Z,56.70
2018-11-27T16:53:05.165Z,57.30
2018-11-27T16:55:34.740Z,56.80
2018-11-27T16:58:04.015Z,56.70
2018-11-27T17:00:34.209Z,56.70
2018-11-27T17:03:04.422Z,57.40
2018-11-27T17:05:39.762Z,56.80
2018-11-27T17:08:09.097Z,56.80
2018-11-27T17:10:39.057Z,56.80
2018-11-27T17:13:09.393Z,56.80
2018-11-27T17:15:39.084Z,56.90
2018-11-27T17:18:08.936Z,56.90
2018-11-27T17:20:39.588Z,56.90
2018-11-27T17:23:10.292Z,56.90
2018-11-27T17:25:39.644Z,56.90
2018-11-27T17:28:17.493Z,56.90
2018-11-27T17:31:08.484Z,56.90
2018-11-27T17:33:42.389Z,57.00
2018-11-27T17:36:11.691Z,57.00
2018-11-27T17:38:40.978Z,57.00
2018-11-27T17:41:10.717Z,57.00
2018-11-27T17:43:40.418Z,57.10
2018-11-27T17:46:09.604Z,57.10
2018-11-27T17:48:38.840Z,57.10
2018-11-27T17:51:08.568Z,57.10
2018-11-27T17:53:37.724Z,57.10
2018-11-27T17:56:06.989Z,57.10
2018-11-27T17:58:38.693Z,57.10
2018-11-27T18:01:08.023Z,57.10
2018-11-27T18:03:37.171Z,57.10
2018-11-27T18:06:06.557Z,57.10
2018-11-27T18:08:35.852Z,57.10
2018-11-27T18:11:05.318Z,57.10
2018-11-27T18:13:35.205Z,57.10
2018-11-27T18:16:04.513Z,57.10
2018-11-27T18:18:33.731Z,57.10
2018-11-27T18:21:02.801Z,57.10
2018-11-27T18:23:32.081Z,57.10
2018-11-27T18:26:01.552Z,57.10
2018-11-27T18:28:30.697Z,57.10
2018-11-27T18:31:00.001Z,57.10
2018-11-27T18:33:29.231Z,57.10
2018-11-27T18:35:58.563Z,57.10
2018-11-27T18:38:28.049Z,57.10
2018-11-27T18:40:57.509Z,57.10
2018-11-27T18:43:26.622Z,57.10
2018-11-27T18:45:56.274Z,57.10
2018-11-27T18:48:25.985Z,57.10
2018-11-27T18:50:55.434Z,57.10
2018-11-27T18:53:24.791Z,57.10
2018-11-27T18:55:54.332Z,57.10
2018-11-27T18:58:23.776Z,57.10
2018-11-27T19:00:53.248Z,57.10
2018-11-27T19:03:22.525Z,57.10
2018-11-27T19:05:51.950Z,57.10
2018-11-27T19:08:21.337Z,57.10
2018-11-27T19:10:50.577Z,57.10
2018-11-27T19:13:20.005Z,57.10
2018-11-27T19:15:49.585Z,57.10
2018-11-27T19:18:22.065Z,57.10
2018-11-27T19:20:51.292Z,57.10
2018-11-27T19:23:24.658Z,57.10
2018-11-27T19:25:54.063Z,57.10
2018-11-27T19:28:23.404Z,57.10
2018-11-27T19:30:52.928Z,57.10
2018-11-27T19:33:22.326Z,57.10
2018-11-27T19:35:51.413Z,57.10
2018-11-27T19:38:21.737Z,57.20
2018-11-27T19:40:51.029Z,57.10
2018-11-27T19:43:20.569Z,57.20
2018-11-27T19:45:49.952Z,57.10
2018-11-27T19:48:19.094Z,57.20
2018-11-27T19:50:48.716Z,57.20
2018-11-27T19:53:18.320Z,57.20
2018-11-27T19:55:47.538Z,57.10
2018-11-27T19:58:16.645Z,57.10
2018-11-27T20:00:46.130Z,57.10
2018-11-27T20:03:15.408Z,57.20
2018-11-27T20:05:44.577Z,57.20
2018-11-27T20:08:16.238Z,57.20
2018-11-27T20:10:45.613Z,57.20
2018-11-27T20:13:14.653Z,57.20
2018-11-27T20:15:43.998Z,57.20
2018-11-27T20:18:13.181Z,57.20
2018-11-27T20:20:42.389Z,57.10
2018-11-27T20:23:11.866Z,57.10
2018-11-27T20:25:40.973Z,57.00
2018-11-27T20:28:10.520Z,57.00
2018-11-27T20:30:40.837Z,57.00
2018-11-27T20:33:10.054Z,56.90
2018-11-27T20:35:39.444Z,56.90
2018-11-27T20:38:09.945Z,56.90
2018-11-27T20:40:39.717Z,56.90
2018-11-27T20:43:08.936Z,56.90
2018-11-27T20:45:38.212Z,56.90
2018-11-27T20:48:15.500Z,56.90
2018-11-27T20:50:47.419Z,57.50
2018-11-27T20:53:17.031Z,56.90
2018-11-27T20:55:46.324Z,56.90
2018-11-27T20:58:15.657Z,56.90
2018-11-27T21:00:46.172Z,56.90
2018-11-27T21:03:15.231Z,56.90
2018-11-27T21:05:44.523Z,57.00
2018-11-27T21:08:13.766Z,57.00
2018-11-27T21:10:42.911Z,57.00
2018-11-27T21:13:12.609Z,57.00
2018-11-27T21:15:42.809Z,57.00
2018-11-27T21:18:13.153Z,57.00
2018-11-27T21:20:43.084Z,57.00
2018-11-27T21:23:12.339Z,57.00
2018-11-27T21:25:41.553Z,57.00
2018-11-27T21:28:17.062Z,57.00
2018-11-27T21:30:47.586Z,57.00
2018-11-27T21:33:16.901Z,57.00
2018-11-27T21:35:46.201Z,57.00
2018-11-27T21:38:15.607Z,57.00
2018-11-27T21:40:44.831Z,57.00
2018-11-27T21:43:14.150Z,57.00
2018-11-27T21:45:43.275Z,57.00
2018-11-27T21:48:12.833Z,57.00
2018-11-27T21:50:42.993Z,57.10
2018-11-27T21:53:12.167Z,57.00
2018-11-27T21:55:42.385Z,57.10
2018-11-27T21:58:11.665Z,57.10
2018-11-27T22:00:41.957Z,57.10
2018-11-27T22:03:12.525Z,57.10
2018-11-27T22:05:41.578Z,57.10
2018-11-27T22:08:10.682Z,57.10
2018-11-27T22:10:40.178Z,57.70
2018-11-27T22:13:12.703Z,57.10
2018-11-27T22:15:42.886Z,57.10
2018-11-27T22:18:12.816Z,57.00
2018-11-27T22:20:42.053Z,57.00
2018-11-27T22:23:11.358Z,57.00
2018-11-27T22:25:40.814Z,57.00
2018-11-27T22:28:10.244Z,57.10
2018-11-27T22:30:39.422Z,57.20
2018-11-27T22:33:09.241Z,57.00
2018-11-27T22:35:38.434Z,57.60
2018-11-27T22:38:08.363Z,57.00
2018-11-27T22:40:37.747Z,57.00
2018-11-27T22:43:07.824Z,57.00
2018-11-27T22:45:40.748Z,57.10
2018-11-27T22:48:12.125Z,57.10
2018-11-27T22:50:40.443Z,57.10
2018-11-27T22:53:10.323Z,57.10
2018-11-27T22:55:39.413Z,57.10
2018-11-27T22:58:09.007Z,57.10
2018-11-27T23:00:43.641Z,57.00
2018-11-27T23:03:12.884Z,57.00
2018-11-27T23:05:42.178Z,57.00
2018-11-27T23:08:11.390Z,57.10
2018-11-27T23:10:41.849Z,57.10
2018-11-27T23:13:11.004Z,57.10
2018-11-27T23:15:40.098Z,57.10
2018-11-27T23:18:09.308Z,57.10
2018-11-27T23:20:38.677Z,57.00
2018-11-27T23:23:07.816Z,57.10
2018-11-27T23:25:36.979Z,57.10
2018-11-27T23:28:06.088Z,57.10
2018-11-27T23:30:35.309Z,57.10
2018-11-27T23:33:04.497Z,57.10
2018-11-27T23:35:33.666Z,57.60
2018-11-27T23:38:03.157Z,57.10
2018-11-27T23:40:32.466Z,57.10
2018-11-27T23:43:01.886Z,57.10
2018-11-27T23:45:31.173Z,57.10
2018-11-27T23:48:00.241Z,57.10
2018-11-27T23:50:29.440Z,57.10
2018-11-27T23:52:58.705Z,57.10
2018-11-27T23:55:27.873Z,57.10
2018-11-27T23:57:56.957Z,57.70
